createdAt,value
2023-01-19T00:03:28.713Z,98918.13
2023-01-19T00:08:30.924Z,98875.66
2023-01-19T00:13:33.592Z,98836.53
2023-01-19T00:18:36.077Z,98871.19
2023-01-19T00:23:38.432Z,98862.88
2023-01-19T00:28:40.587Z,98845.41
2023-01-19T00:33:42.827Z,98841.94
2023-01-19T00:38:45.128Z,98855.38
2023-01-19T00:43:47.384Z,98812.41
2023-01-19T00:48:49.592Z,98688.38
2023-01-19T00:53:51.921Z,98795.16
2023-01-19T00:58:54.113Z,98858.72
2023-01-19T01:03:56.369Z,98789.41
2023-01-19T01:08:58.566Z,98864.91
2023-01-19T01:14:00.823Z,98821.47
2023-01-19T01:19:03.454Z,98810.09
2023-01-19T01:24:05.930Z,98795.13
2023-01-19T01:29:08.866Z,98821.44
2023-01-19T01:34:11.106Z,98795.31
2023-01-19T01:39:13.384Z,98818.53
2023-01-19T01:44:51.652Z,98865.16
2023-01-19T01:50:08.050Z,98783.00
2023-01-19T01:55:10.891Z,98835.94
2023-01-19T02:00:14.055Z,98789.69
2023-01-19T02:05:26.520Z,98848.38
2023-01-19T02:10:47.397Z,98835.16
2023-01-19T02:15:54.465Z,98831.47
2023-01-19T02:21:08.757Z,98842.91
2023-01-19T02:26:13.962Z,98825.97
2023-01-19T02:31:16.787Z,98849.28
2023-01-19T02:36:23.384Z,98823.31
2023-01-19T02:41:29.468Z,98882.94
2023-01-19T02:46:31.730Z,98810.88
2023-01-19T02:51:34.806Z,98841.25
2023-01-19T02:56:49.114Z,98883.00
2023-01-19T03:02:27.163Z,98863.97
2023-01-19T03:07:59.292Z,98865.22
2023-01-19T03:13:22.806Z,98862.56
2023-01-19T03:18:27.266Z,98862.56
2023-01-19T03:23:32.321Z,98863.16
2023-01-19T03:28:34.979Z,98881.50
2023-01-19T03:33:39.633Z,98933.06
2023-01-19T03:38:42.916Z,98913.38
2023-01-19T03:43:47.337Z,98858.19
2023-01-19T03:48:50.230Z,98927.63
2023-01-19T03:53:52.473Z,98933.72
2023-01-19T03:58:56.288Z,98876.91
2023-01-19T04:03:59.190Z,98917.75
2023-01-19T04:09:01.401Z,98968.25
2023-01-19T04:14:04.020Z,98955.34
2023-01-19T04:19:06.281Z,98938.75
2023-01-19T04:24:10.143Z,98940.75
2023-01-19T04:29:14.403Z,98937.94
2023-01-19T04:34:16.690Z,98929.97
2023-01-19T04:39:19.017Z,98938.81
2023-01-19T04:44:21.311Z,98891.53
2023-01-19T04:49:23.621Z,98853.91
2023-01-19T04:54:26.348Z,98934.81
2023-01-19T04:59:28.692Z,99001.19
2023-01-19T05:04:31.027Z,99024.44
2023-01-19T05:09:33.252Z,98963.38
2023-01-19T05:14:35.508Z,98987.53
2023-01-19T05:19:37.819Z,98998.06
2023-01-19T05:24:40.232Z,98986.91
2023-01-19T05:29:42.513Z,99042.75
2023-01-19T05:34:44.728Z,98987.53
2023-01-19T05:39:47.153Z,99038.19
2023-01-19T05:44:49.612Z,99012.81
2023-01-19T05:49:51.877Z,98964.59
2023-01-19T05:54:58.818Z,99037.47
2023-01-19T06:00:01.039Z,99011.78
2023-01-19T06:05:03.302Z,99048.31
2023-01-19T06:10:06.168Z,99055.28
2023-01-19T06:15:08.845Z,99116.91
2023-01-19T06:20:14.422Z,99065.41
2023-01-19T06:25:16.941Z,99119.63
2023-01-19T06:30:19.628Z,99128.47
2023-01-19T06:35:22.067Z,99090.78
2023-01-19T06:40:24.310Z,99085.75
2023-01-19T06:45:26.772Z,99020.16
2023-01-19T06:50:29.213Z,99118.81
2023-01-19T06:55:31.518Z,99068.28
2023-01-19T07:00:33.803Z,99086.56
2023-01-19T07:05:36.668Z,99130.78
2023-01-19T07:11:27.147Z,99086.28
2023-01-19T07:16:12.152Z,99140.63
2023-01-19T07:21:14.597Z,99118.84
2023-01-19T07:26:20.088Z,99139.59
2023-01-19T07:31:22.518Z,99126.50
2023-01-19T07:36:24.976Z,99133.50
2023-01-19T07:41:27.166Z,99141.88
2023-01-19T07:46:32.014Z,99146.19
2023-01-19T07:51:34.331Z,99128.53
2023-01-19T07:56:36.592Z,99171.03
2023-01-19T08:01:40.237Z,99138.44
2023-01-19T08:06:45.671Z,99112.72
2023-01-19T08:11:48.051Z,99169.22
2023-01-19T08:16:50.262Z,99160.44
2023-01-19T08:21:53.376Z,99261.69
2023-01-19T08:27:02.554Z,99266.91
2023-01-19T08:32:05.266Z,99231.63
2023-01-19T08:37:07.608Z,99166.16
2023-01-19T08:42:09.991Z,99228.38
2023-01-19T08:47:12.313Z,99189.91
2023-01-19T08:52:14.704Z,99204.91
2023-01-19T08:57:17.001Z,99067.81
2023-01-19T09:02:19.326Z,99233.25
2023-01-19T09:07:21.568Z,99141.59
2023-01-19T09:12:23.919Z,99054.47
2023-01-19T09:17:26.197Z,99164.09
2023-01-19T09:22:29.007Z,99191.94
2023-01-19T09:27:31.421Z,99056.56
2023-01-19T09:32:33.769Z,99093.56
2023-01-19T09:37:35.961Z,99167.47
2023-01-19T09:42:47.865Z,99190.28
2023-01-19T09:47:52.032Z,99125.50
2023-01-19T09:53:02.617Z,99081.31
2023-01-19T09:58:11.931Z,99192.44
2023-01-19T10:03:18.080Z,99102.41
2023-01-19T10:08:39.125Z,99242.28
2023-01-19T10:13:48.377Z,99258.66
2023-01-19T10:18:54.112Z,99158.66
2023-01-19T10:23:58.536Z,99223.63
2023-01-19T10:29:07.874Z,99249.19
2023-01-19T10:34:21.598Z,99129.09
2023-01-19T10:39:25.360Z,99195.66
2023-01-19T10:44:30.046Z,99263.91
2023-01-19T10:49:35.999Z,99262.19
2023-01-19T10:54:38.443Z,99236.28
2023-01-19T10:59:51.733Z,99224.09
2023-01-19T11:04:59.910Z,99217.81
2023-01-19T11:10:23.295Z,99258.09
2023-01-19T11:15:33.176Z,99277.78
2023-01-19T11:20:51.446Z,99235.81
2023-01-19T11:25:56.828Z,99240.06
2023-01-19T11:31:03.576Z,99254.69
2023-01-19T11:36:10.554Z,99293.16
2023-01-19T11:41:19.439Z,99273.44
2023-01-19T11:46:26.868Z,99192.31
2023-01-19T11:51:34.889Z,99268.53
2023-01-19T11:56:37.295Z,99298.25
2023-01-19T12:01:46.452Z,99079.03
2023-01-19T12:06:54.819Z,99304.38
2023-01-19T12:12:06.162Z,99302.06
2023-01-19T12:17:20.145Z,99304.09
2023-01-19T12:22:24.029Z,99239.22
2023-01-19T12:27:46.720Z,99231.03
2023-01-19T12:32:51.584Z,99289.53
2023-01-19T12:37:53.937Z,99256.66
2023-01-19T12:43:04.632Z,99336.53
2023-01-19T12:48:24.381Z,99247.09
2023-01-19T12:53:27.166Z,99326.72
2023-01-19T12:58:29.602Z,99234.06
2023-01-19T13:03:31.770Z,99346.16
2023-01-19T13:08:56.847Z,99346.31
2023-01-19T13:13:59.045Z,99358.13
2023-01-19T13:19:10.285Z,99307.34
2023-01-19T13:24:25.167Z,99318.94
2023-01-19T13:29:31.672Z,99355.50
2023-01-19T13:34:45.464Z,99332.03
2023-01-19T13:39:50.335Z,99289.84
2023-01-19T13:44:54.017Z,99293.47
2023-01-19T13:49:57.384Z,99329.72
2023-01-19T13:55:05.057Z,99349.25
2023-01-19T14:00:12.422Z,99348.31
2023-01-19T14:05:26.504Z,99316.13
2023-01-19T14:10:33.492Z,99347.59
2023-01-19T14:15:38.854Z,99364.03
2023-01-19T14:20:41.423Z,99352.88
2023-01-19T14:25:45.274Z,99393.78
2023-01-19T14:31:21.126Z,99387.53
2023-01-19T14:36:34.413Z,99374.22
2023-01-19T14:41:40.821Z,99420.53
2023-01-19T14:46:47.765Z,99381.47
2023-01-19T14:51:50.299Z,99351.84
2023-01-19T14:56:54.140Z,99268.00
2023-01-19T15:01:56.850Z,99332.22
2023-01-19T15:06:59.328Z,99360.88
2023-01-19T15:12:01.948Z,99262.59
2023-01-19T15:17:04.249Z,99286.38
2023-01-19T15:22:13.679Z,99388.00
2023-01-19T15:27:19.782Z,99341.22
2023-01-19T15:32:22.103Z,99357.78
2023-01-19T15:37:25.398Z,99327.16
2023-01-19T15:42:27.719Z,99217.69
2023-01-19T15:47:29.973Z,99368.41
2023-01-19T15:52:32.219Z,99334.06
2023-01-19T15:57:35.450Z,99279.72
2023-01-19T16:02:38.716Z,99286.25
2023-01-19T16:07:41.046Z,99335.19
2023-01-19T16:12:47.970Z,99311.63
2023-01-19T16:17:50.227Z,99315.97
2023-01-19T16:22:58.576Z,99275.91
2023-01-19T16:28:09.360Z,99291.91
2023-01-19T16:33:13.802Z,99199.19
2023-01-19T16:38:16.333Z,99309.56
2023-01-19T16:43:19.033Z,99265.13
2023-01-19T16:48:21.375Z,99257.16
2023-01-19T16:53:23.716Z,99205.72
2023-01-19T16:58:26.021Z,99299.19
2023-01-19T17:03:28.443Z,99127.47
2023-01-19T17:08:30.730Z,99300.16
2023-01-19T17:13:33.000Z,99309.91
2023-01-19T17:18:36.574Z,99268.00
2023-01-19T17:23:43.104Z,99276.09
2023-01-19T17:28:46.044Z,99243.38
2023-01-19T17:33:54.167Z,99279.97
2023-01-19T17:39:00.828Z,99288.06
2023-01-19T17:44:04.662Z,99329.47
2023-01-19T17:49:08.015Z,99309.91
2023-01-19T17:54:11.526Z,99300.50
2023-01-19T17:59:13.908Z,99283.06
2023-01-19T18:04:16.259Z,99275.16
2023-01-19T18:09:18.940Z,99265.72
2023-01-19T18:14:21.266Z,99314.81
2023-01-19T18:19:23.963Z,99291.84
2023-01-19T18:24:26.340Z,99271.19
2023-01-19T18:29:28.741Z,99232.81
2023-01-19T18:34:31.002Z,99300.22
2023-01-19T18:39:33.279Z,99196.03
2023-01-19T18:44:35.534Z,99180.19
2023-01-19T18:49:38.298Z,99252.63
2023-01-19T18:54:40.584Z,99278.31
2023-01-19T18:59:51.732Z,99234.19
2023-01-19T19:04:54.287Z,99225.63
2023-01-19T19:09:56.545Z,99291.50
2023-01-19T19:15:17.010Z,99211.34
2023-01-19T19:20:20.919Z,99262.19
2023-01-19T19:25:23.612Z,99300.22
2023-01-19T19:30:25.842Z,99223.88
2023-01-19T19:35:28.248Z,99263.22
2023-01-19T19:40:30.565Z,99260.47
2023-01-19T19:45:32.846Z,99165.63
2023-01-19T19:50:35.675Z,99124.28
2023-01-19T19:55:37.945Z,99258.09
2023-01-19T20:00:40.238Z,99251.19
2023-01-19T20:05:42.487Z,99266.16
2023-01-19T20:10:44.783Z,99210.34
2023-01-19T20:15:47.171Z,99151.84
2023-01-19T20:20:49.498Z,99132.25
2023-01-19T20:25:52.048Z,99198.50
2023-01-19T20:30:55.305Z,99213.03
2023-01-19T20:35:57.695Z,99176.34
2023-01-19T20:41:00.098Z,99185.81
2023-01-19T20:46:02.621Z,99200.69
2023-01-19T20:51:13.148Z,99221.00
2023-01-19T20:56:16.132Z,99151.50
2023-01-19T21:01:25.358Z,99224.25
2023-01-19T21:06:28.142Z,99201.69
2023-01-19T21:11:30.978Z,99227.75
2023-01-19T21:16:34.546Z,99242.56
2023-01-19T21:21:38.309Z,99189.25
2023-01-19T21:26:41.969Z,99172.03
2023-01-19T21:31:44.249Z,99225.22
2023-01-19T21:36:49.406Z,99157.09
2023-01-19T21:41:51.780Z,99230.63
2023-01-19T21:46:55.734Z,99203.72
2023-01-19T21:51:59.894Z,99173.25
2023-01-19T21:57:04.829Z,99242.44
2023-01-19T22:02:07.328Z,99212.91
2023-01-19T22:07:09.857Z,99238.66
2023-01-19T22:12:12.150Z,99222.03
2023-01-19T22:17:14.458Z,99176.25
2023-01-19T22:22:16.671Z,99247.28
2023-01-19T22:27:19.092Z,99129.22
2023-01-19T22:32:22.789Z,99208.09
2023-01-19T22:37:25.064Z,99195.06
2023-01-19T22:42:27.357Z,99207.13
2023-01-19T22:47:29.892Z,99029.94
2023-01-19T22:52:32.167Z,99182.56
2023-01-19T22:57:36.776Z,99208.88
2023-01-19T23:02:39.157Z,99145.13
2023-01-19T23:07:41.455Z,99195.16
2023-01-19T23:12:46.639Z,99234.31
2023-01-19T23:17:53.075Z,99226.59
2023-01-19T23:22:55.332Z,99204.81
2023-01-19T23:27:57.828Z,99216.19
2023-01-19T23:33:00.180Z,99195.19
2023-01-19T23:38:02.520Z,99158.59
2023-01-19T23:43:05.489Z,99245.06
2023-01-19T23:48:08.467Z,99222.25
2023-01-19T23:53:10.811Z,99213.56
2023-01-19T23:58:13.089Z,99227.44
